Time;durP1;ratioP1;P1;durP2;ratioP2;P2;SDS_P1;SDS_P2;PMS_P1;PMS_P2;Temp;Humidity;BMP_temperature;BMP_pressure;BME280_temperature;BME280_humidity;BME280_pressure;Samples;Min_cycle;Max_cycle;Signal;HPM_P1;HPM_P2
2023/06/13 01:07:14;;;;;;;;;25.00;24.25;;;;;21.85;58.69;100780.31;6366850;22;45467;-87
2023/06/13 01:09:40;;;;;;;;;22.25;21.50;;;;;21.79;58.66;100780.81;6369720;22;45334;-87
2023/06/13 01:12:17;;;;;;;;;22.75;22.00;;;;;21.80;58.62;100780.69;6367511;22;45595;-86
2023/06/13 01:14:58;;;;;;;;;21.50;19.75;;;;;21.76;58.28;100779.28;6394207;22;47219;-87
2023/06/13 01:17:36;;;;;;;;;20.00;20.00;;;;;21.72;58.58;100778.66;6394726;22;45690;-87
2023/06/13 01:20:05;;;;;;;;;25.25;23.00;;;;;21.70;58.61;100779.75;6367643;22;45437;-87
2023/06/13 01:22:45;;;;;;;;;19.75;19.50;;;;;21.68;58.44;100785.16;6369566;22;45216;-87
2023/06/13 01:25:52;;;;;;;;;22.00;21.25;;;;;21.64;59.11;100781.09;6366935;22;48615;-87
2023/06/13 01:28:20;;;;;;;;;24.50;22.00;;;;;21.59;58.85;100780.63;6367149;22;45429;-87
2023/06/13 01:30:47;;;;;;;;;25.00;23.25;;;;;21.58;59.07;100778.94;6394919;22;45256;-87
2023/06/13 01:33:15;;;;;;;;;22.75;22.75;;;;;21.56;59.43;100778.25;6371422;22;45260;-87
2023/06/13 01:35:41;;;;;;;;;23.75;21.00;;;;;21.51;59.41;100775.13;6371663;22;46728;-86
2023/06/13 01:38:07;;;;;;;;;16.75;16.25;;;;;21.48;58.88;100779.69;6369075;22;45312;-86
2023/06/13 01:40:33;;;;;;;;;23.75;22.75;;;;;21.43;58.65;100768.63;6368699;22;45330;-87
2023/06/13 01:43:00;;;;;;;;;22.50;22.50;;;;;21.43;59.24;100776.56;6368123;22;45241;-87
2023/06/13 01:45:26;;;;;;;;;24.25;23.25;;;;;21.41;59.42;100767.09;6367534;22;47557;-87
2023/06/13 01:47:55;;;;;;;;;24.25;23.25;;;;;21.41;59.30;100775.88;6368884;22;45235;-87
2023/06/13 01:51:12;;;;;;;;;23.75;22.00;;;;;21.38;59.37;100776.13;6366903;22;45443;-87
2023/06/13 01:53:45;;;;;;;;;18.00;18.00;;;;;21.38;59.45;100777.94;6388152;22;45343;-87
2023/06/13 01:56:17;;;;;;;;;23.75;19.75;;;;;21.35;59.53;100774.56;6369077;22;45346;-86
2023/06/13 01:58:48;;;;;;;;;22.50;21.75;;;;;21.32;59.29;100780.13;6367004;22;45252;-87
2023/06/13 02:01:15;;;;;;;;;22.00;21.50;;;;;21.28;59.04;100770.72;6367012;22;45413;-87
2023/06/13 02:03:41;;;;;;;;;21.75;21.25;;;;;21.25;59.52;100765.72;6368004;22;45328;-87
2023/06/13 02:06:06;;;;;;;;;19.00;17.25;;;;;21.23;59.56;100764.97;6368299;22;46394;-86
2023/06/13 02:08:33;;;;;;;;;24.25;23.50;;;;;21.20;59.35;100767.88;6367320;22;45324;-87
2023/06/13 02:10:59;;;;;;;;;21.50;21.50;;;;;21.12;59.40;100760.56;6369445;22;45251;-87
2023/06/13 02:13:24;;;;;;;;;26.00;23.25;;;;;21.13;59.35;100764.03;6370025;22;45601;-87
2023/06/13 02:15:50;;;;;;;;;23.25;21.00;;;;;21.10;59.37;100759.81;6372053;22;45530;-87
2023/06/13 02:18:16;;;;;;;;;21.50;19.50;;;;;21.06;59.75;100756.59;6370116;22;45277;-87
2023/06/13 02:20:41;;;;;;;;;21.75;21.75;;;;;21.04;59.71;100760.31;6394503;22;45404;-87
2023/06/13 02:23:06;;;;;;;;;23.75;22.50;;;;;21.01;59.91;100763.22;6370130;22;45344;-87
2023/06/13 02:25:32;;;;;;;;;22.75;21.00;;;;;20.99;59.32;100759.84;6368119;22;45400;-87
2023/06/13 02:27:58;;;;;;;;;22.25;20.75;;;;;20.95;59.80;100764.56;6367504;22;45403;-87
2023/06/13 02:30:25;;;;;;;;;23.75;22.50;;;;;20.91;59.78;100758.66;6366934;22;45430;-87
2023/06/13 02:32:52;;;;;;;;;22.75;21.75;;;;;20.88;59.68;100766.00;6368098;22;45458;-86
2023/06/13 02:35:22;;;;;;;;;23.00;22.00;;;;;20.82;59.85;100754.91;6367406;22;45933;-87
2023/06/13 02:37:53;;;;;;;;;24.75;23.50;;;;;20.75;59.74;100753.75;6368995;22;45319;-87
2023/06/13 02:40:19;;;;;;;;;27.50;27.50;;;;;20.72;60.04;100761.91;6366459;22;45399;-87
2023/06/13 02:42:49;;;;;;;;;23.00;23.00;;;;;20.69;60.45;100762.16;6368802;22;45431;-87
2023/06/13 02:45:17;;;;;;;;;22.75;22.00;;;;;20.67;60.18;100758.78;6368338;22;45553;-87
2023/06/13 02:47:43;;;;;;;;;23.75;23.25;;;;;20.63;60.30;100757.31;6367465;22;45381;-87
2023/06/13 02:50:09;;;;;;;;;23.00;23.00;;;;;20.58;60.18;100757.69;6369552;22;45316;-87
2023/06/13 02:52:34;;;;;;;;;25.25;22.75;;;;;20.55;60.20;100750.84;6369791;22;45376;-86
2023/06/13 02:55:00;;;;;;;;;23.75;23.75;;;;;20.50;60.35;100747.72;6373716;22;45377;-88
2023/06/13 02:57:25;;;;;;;;;25.00;23.00;;;;;20.50;60.52;100741.59;6370465;22;45467;-87
2023/06/13 02:59:51;;;;;;;;;22.00;20.50;;;;;20.47;60.36;100753.25;6366948;22;45282;-87
2023/06/13 03:02:16;;;;;;;;;26.75;23.50;;;;;20.40;60.54;100742.31;6367456;22;45415;-87
2023/06/13 03:04:42;;;;;;;;;21.75;21.75;;;;;20.40;60.42;100749.41;6366836;22;48020;-88
2023/06/13 03:07:10;;;;;;;;;26.75;26.25;;;;;20.37;60.61;100758.41;6392431;22;45508;-87
2023/06/13 03:09:35;;;;;;;;;26.00;24.75;;;;;20.34;60.37;100749.88;6367885;22;45267;-87
2023/06/13 03:12:02;;;;;;;;;23.50;22.25;;;;;20.28;60.73;100751.19;6367541;22;45404;-87
2023/06/13 03:14:28;;;;;;;;;25.00;24.25;;;;;20.27;60.94;100760.09;6394485;22;45497;-87
2023/06/13 03:16:55;;;;;;;;;23.00;21.50;;;;;20.22;60.57;100756.97;6394343;22;45722;-87
2023/06/13 03:19:22;;;;;;;;;26.50;26.00;;;;;20.20;60.84;100754.44;6367672;22;45340;-87
2023/06/13 03:21:48;;;;;;;;;26.25;23.75;;;;;20.22;60.86;100759.59;6366512;22;45555;-87
2023/06/13 03:24:14;;;;;;;;;23.25;22.50;;;;;20.14;60.85;100755.72;6366875;22;46738;-87
2023/06/13 03:26:39;;;;;;;;;26.00;24.50;;;;;20.16;60.59;100760.91;6369143;22;45229;-87
2023/06/13 03:29:07;;;;;;;;;26.50;24.25;;;;;20.14;60.71;100754.91;6369629;22;45307;-87
2023/06/13 03:31:32;;;;;;;;;25.00;24.75;;;;;20.11;61.00;100755.97;6370956;22;45430;-88
2023/06/13 03:33:58;;;;;;;;;25.75;22.75;;;;;20.09;60.86;100757.06;6371610;22;46650;-87
2023/06/13 03:36:23;;;;;;;;;24.00;23.25;;;;;20.08;60.70;100756.19;6395935;22;45207;-88
2023/06/13 03:38:50;;;;;;;;;23.75;21.75;;;;;20.05;60.96;100748.53;6367344;22;45257;-87
2023/06/13 03:41:15;;;;;;;;;19.75;18.25;;;;;20.02;61.12;100749.59;6367348;22;45408;-87
2023/06/13 03:43:40;;;;;;;;;20.75;19.75;;;;;19.99;61.61;100746.31;6368957;22;46658;-87
2023/06/13 03:46:06;;;;;;;;;24.75;23.75;;;;;19.99;60.97;100756.88;6392374;22;45334;-87
2023/06/13 03:48:31;;;;;;;;;25.75;24.75;;;;;19.95;61.40;100753.63;6394380;22;45288;-87
2023/06/13 03:50:57;;;;;;;;;26.25;22.50;;;;;19.90;61.10;100751.31;6367584;22;45306;-87
2023/06/13 03:53:22;;;;;;;;;29.25;26.00;;;;;19.90;61.12;100746.03;6366771;22;45651;-88
2023/06/13 03:55:47;;;;;;;;;25.50;25.00;;;;;19.87;61.17;100743.63;6366442;22;45324;-88
2023/06/13 03:58:13;;;;;;;;;27.00;23.25;;;;;19.88;61.32;100749.75;6394019;22;45848;-87
2023/06/13 04:00:41;;;;;;;;;29.50;26.25;;;;;19.85;61.22;100753.47;6369699;22;45290;-88
2023/06/13 04:03:08;;;;;;;;;28.00;26.00;;;;;19.83;61.35;100749.25;6367194;22;46573;-87
2023/06/13 04:05:33;;;;;;;;;26.75;25.00;;;;;19.82;61.98;100756.38;6393751;22;45316;-87
2023/06/13 04:07:59;;;;;;;;;25.75;25.50;;;;;19.79;61.60;100753.94;6365812;22;45413;-87
2023/06/13 04:10:24;;;;;;;;;27.25;26.75;;;;;19.80;61.84;100746.88;6366354;22;45643;-88
2023/06/13 04:12:50;;;;;;;;;28.75;28.25;;;;;19.79;61.53;100748.66;6393294;22;46622;-87
2023/06/13 04:15:16;;;;;;;;;23.25;23.25;;;;;19.78;61.54;100754.91;6395413;22;45345;-87
2023/06/13 04:17:41;;;;;;;;;26.50;24.25;;;;;19.77;61.82;100750.59;6366163;22;45299;-87
2023/06/13 04:20:08;;;;;;;;;26.50;25.00;;;;;19.74;62.03;100746.38;6366833;22;45309;-87
2023/06/13 04:22:35;;;;;;;;;25.00;25.00;;;;;19.75;61.93;100749.84;6365519;22;46551;-87
2023/06/13 04:25:01;;;;;;;;;27.50;27.50;;;;;19.74;61.81;100756.94;6366218;22;45197;-88
2023/06/13 04:27:28;;;;;;;;;26.25;25.25;;;;;19.75;61.81;100765.69;6366625;22;45373;-88
2023/06/13 04:29:57;;;;;;;;;29.25;27.50;;;;;19.75;62.04;100763.03;6369620;22;45311;-88
2023/06/13 04:32:23;;;;;;;;;29.50;25.50;;;;;19.71;62.01;100767.72;6366006;22;48004;-88
2023/06/13 04:34:54;;;;;;;;;21.25;20.25;;;;;19.75;62.46;100776.25;6366604;22;45452;-88
2023/06/13 04:37:23;;;;;;;;;26.25;24.50;;;;;19.75;62.03;100774.44;6366837;22;45277;-88
2023/06/13 04:39:50;;;;;;;;;32.25;27.25;;;;;19.74;62.40;100770.13;6392954;22;45412;-88
2023/06/13 04:42:24;;;;;;;;;29.50;27.75;;;;;19.74;62.31;100775.41;6393133;22;46194;-88
2023/06/13 04:44:52;;;;;;;;;32.25;29.00;;;;;19.79;62.56;100779.47;6366041;22;45311;-88
2023/06/13 04:47:18;;;;;;;;;25.25;25.25;;;;;19.75;62.52;100771.81;6366303;22;45321;-88
2023/06/13 04:49:45;;;;;;;;;27.00;26.75;;;;;19.77;62.83;100775.16;6393250;22;45191;-88
2023/06/13 04:52:14;;;;;;;;;30.50;29.50;;;;;19.78;62.93;100773.38;6372491;22;45683;-87
2023/06/13 04:54:40;;;;;;;;;26.00;25.75;;;;;19.84;62.42;100777.34;6370082;22;45768;-88
2023/06/13 04:57:05;;;;;;;;;31.75;29.00;;;;;19.84;62.74;100780.84;6366686;22;45178;-88
2023/06/13 04:59:31;;;;;;;;;31.75;28.75;;;;;19.83;62.59;100768.59;6365826;22;45486;-88
2023/06/13 05:01:56;;;;;;;;;29.75;27.75;;;;;19.88;62.92;100779.66;6365274;22;47786;-88
2023/06/13 05:04:22;;;;;;;;;26.00;25.00;;;;;19.92;62.61;100777.63;6393073;22;45389;-88
2023/06/13 05:06:47;;;;;;;;;29.50;29.25;;;;;19.94;62.94;100773.06;6367964;22;45228;-88
2023/06/13 05:09:14;;;;;;;;;33.25;30.25;;;;;19.99;62.87;100775.38;6367199;22;45231;-88
2023/06/13 05:11:40;;;;;;;;;33.75;31.50;;;;;20.02;62.69;100778.66;6365070;22;48204;-88
2023/06/13 05:14:06;;;;;;;;;35.25;32.75;;;;;20.05;62.59;100777.59;6365569;22;45461;-87
2023/06/13 05:16:31;;;;;;;;;37.00;31.50;;;;;20.08;62.49;100784.44;6365908;22;45294;-88
2023/06/13 05:18:57;;;;;;;;;30.25;28.00;;;;;20.12;62.49;100781.44;6365687;22;45628;-88
2023/06/13 05:21:22;;;;;;;;;36.50;32.00;;;;;20.18;62.69;100784.56;6366099;22;47739;-87
2023/06/13 05:23:48;;;;;;;;;31.50;29.25;;;;;20.21;62.88;100779.88;6391291;22;45337;-87
2023/06/13 05:26:13;;;;;;;;;31.25;30.00;;;;;20.20;62.38;100780.84;6392249;22;45331;-87
2023/06/13 05:28:39;;;;;;;;;34.00;31.00;;;;;20.27;62.62;100782.06;6367225;22;45349;-87
2023/06/13 05:31:06;;;;;;;;;29.00;27.75;;;;;20.32;62.70;100786.97;6370989;22;45237;-87
2023/06/13 05:33:33;;;;;;;;;27.25;27.00;;;;;20.37;62.50;100784.81;6372038;22;45244;-88
2023/06/13 05:35:58;;;;;;;;;37.00;32.25;;;;;20.41;62.39;100781.00;6367574;22;45264;-87
2023/06/13 05:38:24;;;;;;;;;27.75;27.25;;;;;20.44;62.25;100772.00;6395463;22;45506;-87
2023/06/13 05:40:49;;;;;;;;;26.50;26.50;;;;;20.50;62.17;100765.41;6368629;22;46177;-87
2023/06/13 05:43:19;;;;;;;;;28.75;26.75;;;;;20.53;62.56;100762.50;6392187;22;45336;-87
2023/06/13 05:45:45;;;;;;;;;27.25;26.25;;;;;20.56;62.42;100759.63;6365476;22;45309;-87
2023/06/13 05:48:10;;;;;;;;;26.00;25.25;;;;;20.62;61.96;100767.06;6393702;22;45593;-88
2023/06/13 05:50:36;;;;;;;;;21.75;21.25;;;;;20.64;61.49;100767.78;6392745;22;46711;-87
2023/06/13 05:53:01;;;;;;;;;25.25;24.75;;;;;20.63;61.96;100770.53;6370584;22;45337;-88
2023/06/13 05:55:26;;;;;;;;;21.50;20.25;;;;;20.69;61.90;100776.19;6367896;22;45162;-87
2023/06/13 05:57:53;;;;;;;;;26.50;25.75;;;;;20.72;61.60;100775.13;6367892;22;45471;-88
2023/06/13 06:00:19;;;;;;;;;33.50;30.25;;;;;20.77;61.71;100783.53;6365997;22;45585;-87
2023/06/13 06:02:46;;;;;;;;;26.50;25.50;;;;;20.87;61.60;100791.59;6367849;22;45412;-87
2023/06/13 06:05:11;;;;;;;;;27.25;23.50;;;;;20.91;61.77;100789.56;6366651;22;45478;-87
2023/06/13 06:07:38;;;;;;;;;28.50;26.25;;;;;20.91;61.41;100782.47;6366759;22;45494;-87
2023/06/13 06:10:05;;;;;;;;;29.00;26.25;;;;;20.95;61.27;100781.28;6367395;22;47996;-87
2023/06/13 06:12:31;;;;;;;;;28.25;23.50;;;;;21.04;61.42;100777.06;6371366;22;45227;-87
2023/06/13 06:14:56;;;;;;;;;22.50;22.50;;;;;21.07;60.71;100782.06;6369284;22;45471;-87
2023/06/13 06:17:22;;;;;;;;;22.75;21.50;;;;;21.12;60.45;100775.59;6369303;22;45507;-87
2023/06/13 06:19:48;;;;;;;;;26.00;23.50;;;;;21.13;60.28;100777.25;6366710;22;46759;-87
2023/06/13 06:22:13;;;;;;;;;22.25;19.75;;;;;21.15;60.58;100778.00;6367499;22;45195;-87
2023/06/13 06:24:39;;;;;;;;;26.00;24.25;;;;;21.20;60.40;100776.66;6369303;22;45267;-87
2023/06/13 06:27:05;;;;;;;;;21.25;20.25;;;;;21.26;60.74;100764.75;6368320;22;45553;-87
2023/06/13 06:29:31;;;;;;;;;23.50;21.25;;;;;21.31;60.15;100762.56;6370309;22;45426;-87
2023/06/13 06:31:56;;;;;;;;;24.00;22.75;;;;;21.36;60.05;100763.03;6395695;22;45307;-87
2023/06/13 06:34:21;;;;;;;;;23.75;22.50;;;;;21.41;59.90;100757.34;6371694;22;45413;-87
2023/06/13 06:36:47;;;;;;;;;24.00;23.25;;;;;21.44;59.42;100766.84;6395172;22;45482;-87
2023/06/13 06:39:13;;;;;;;;;21.75;19.50;;;;;21.49;58.72;100762.00;6370976;22;46232;-87
2023/06/13 06:41:39;;;;;;;;;21.25;20.25;;;;;21.53;58.83;100770.53;6371473;22;45394;-87
2023/06/13 06:44:04;;;;;;;;;18.50;18.00;;;;;21.57;58.65;100769.34;6369778;22;45359;-87
2023/06/13 06:46:29;;;;;;;;;21.25;19.75;;;;;21.62;58.73;100775.09;6373745;22;45533;-87
2023/06/13 06:48:55;;;;;;;;;16.25;15.50;;;;;21.66;58.28;100762.44;6405416;22;47078;-87
2023/06/13 06:51:20;;;;;;;;;20.25;19.75;;;;;21.71;57.88;100757.63;6380173;22;45120;-87
2023/06/13 06:57:26;;;;;;;;;19.33;19.33;;;;;21.82;56.57;100764.66;6374448;22;44761;-88
2023/06/13 06:59:51;;;;;;;;;18.67;18.00;;;;;21.85;56.20;100762.59;6374847;22;45367;-88
2023/06/13 07:02:17;;;;;;;;;20.00;18.00;;;;;21.88;56.37;100764.16;6371795;22;45424;-88
2023/06/13 07:04:42;;;;;;;;;17.67;17.00;;;;;21.89;55.76;100756.06;6396804;22;45602;-87
2023/06/13 07:07:07;;;;;;;;;14.75;14.25;;;;;21.98;56.79;100756.28;6371078;22;45412;-88
2023/06/13 07:09:33;;;;;;;;;17.75;17.25;;;;;22.02;55.15;100760.34;6395494;22;46227;-87
2023/06/13 07:11:58;;;;;;;;;17.25;17.00;;;;;22.05;55.61;100756.59;6367353;22;45419;-87
2023/06/13 07:14:25;;;;;;;;;18.67;18.67;;;;;22.12;54.85;100761.22;6397512;22;45385;-87
2023/06/13 07:16:50;;;;;;;;;15.67;15.67;;;;;22.16;54.16;100757.38;6370581;22;45371;-87
2023/06/13 07:19:16;;;;;;;;;17.50;15.75;;;;;22.19;53.70;100764.22;6395278;22;47114;-87
2023/06/13 07:21:41;;;;;;;;;16.33;16.33;;;;;22.28;53.58;100768.72;6369235;22;45246;-87
2023/06/13 07:24:06;;;;;;;;;18.00;16.00;;;;;22.34;53.42;100770.00;6370912;22;45310;-88
2023/06/13 07:26:32;;;;;;;;;17.75;17.50;;;;;22.40;53.11;100773.97;6370782;22;45751;-87
2023/06/13 07:28:57;;;;;;;;;15.50;15.50;;;;;22.45;52.68;100768.25;6395879;22;45990;-87
2023/06/13 07:31:23;;;;;;;;;14.25;14.25;;;;;22.50;53.35;100772.16;6396034;22;45567;-87
2023/06/13 07:33:50;;;;;;;;;17.25;15.75;;;;;22.59;53.11;100775.03;6372545;22;45401;-87
2023/06/13 07:36:16;;;;;;;;;15.25;15.25;;;;;22.63;52.80;100771.16;6368265;22;45618;-88
2023/06/13 07:38:41;;;;;;;;;10.25;10.25;;;;;22.69;52.56;100766.13;6394219;22;45889;-87
2023/06/13 07:41:07;;;;;;;;;18.75;16.75;;;;;22.77;52.37;100765.47;6366803;22;45324;-87
2023/06/13 07:43:32;;;;;;;;;14.67;13.67;;;;;22.82;52.33;100765.91;6370022;22;45751;-87
2023/06/13 07:45:57;;;;;;;;;14.33;14.33;;;;;22.89;52.09;100770.66;6366295;22;45618;-88
2023/06/13 07:48:23;;;;;;;;;18.00;16.75;;;;;22.96;52.12;100769.16;6366790;22;47565;-87
2023/06/13 07:50:48;;;;;;;;;16.00;15.50;;;;;23.03;51.73;100767.63;6393044;22;45358;-87
2023/06/13 07:53:14;;;;;;;;;16.67;14.33;;;;;23.13;51.75;100767.66;6366208;22;45403;-87
2023/06/13 07:55:45;;;;;;;;;17.33;15.00;;;;;23.20;51.67;100760.81;6389287;22;45287;-88
2023/06/13 07:58:10;;;;;;;;;16.33;16.00;;;;;23.26;50.67;100764.75;6369731;22;45405;-88
2023/06/13 08:00:35;;;;;;;;;18.50;17.50;;;;;23.34;51.13;100758.78;6367315;22;45307;-88
2023/06/13 08:03:01;;;;;;;;;17.33;15.33;;;;;23.39;50.66;100761.00;6369586;22;45313;-88
2023/06/13 08:05:26;;;;;;;;;17.00;17.00;;;;;23.47;50.41;100761.16;6369550;22;45491;-88
2023/06/13 08:07:51;;;;;;;;;18.00;16.33;;;;;23.57;50.65;100767.31;6395189;22;45479;-87
2023/06/13 08:10:17;;;;;;;;;15.33;15.33;;;;;23.62;49.29;100759.75;6369107;22;45321;-87
2023/06/13 08:12:42;;;;;;;;;15.00;14.00;;;;;23.73;50.34;100765.88;6367556;22;45285;-88
2023/06/13 08:15:08;;;;;;;;;14.00;14.00;;;;;23.77;49.55;100764.63;6367289;22;45345;-88
2023/06/13 08:17:36;;;;;;;;;15.00;15.00;;;;;23.87;49.33;100770.78;6366902;22;47823;-87
2023/06/13 08:20:04;;;;;;;;;15.50;15.00;;;;;23.94;48.17;100757.78;6366312;22;45293;-88
2023/06/13 08:22:29;;;;;;;;;16.67;16.33;;;;;24.04;48.13;100760.41;6368470;22;45372;-88
2023/06/13 08:24:55;;;;;;;;;15.00;14.00;;;;;24.14;47.93;100747.13;6394635;22;45322;-87
2023/06/13 08:27:21;;;;;;;;;17.00;16.25;;;;;24.25;47.38;100759.41;6393788;22;48025;-88
2023/06/13 08:29:46;;;;;;;;;16.25;16.25;;;;;24.33;47.60;100753.34;6366926;22;45446;-88
2023/06/13 08:32:11;;;;;;;;;19.25;18.25;;;;;24.40;47.44;100757.13;6367018;22;45337;-88
2023/06/13 08:34:37;;;;;;;;;16.25;16.25;;;;;24.47;47.24;100757.34;6366353;22;45567;-88
2023/06/13 08:37:03;;;;;;;;;16.00;16.00;;;;;24.60;46.83;100760.53;6392786;22;45416;-88
2023/06/13 08:39:28;;;;;;;;;17.75;17.25;;;;;24.68;46.97;100755.28;6366426;22;45426;-88
2023/06/13 08:41:55;;;;;;;;;16.75;15.50;;;;;24.74;46.66;100745.03;6366508;22;45381;-88
2023/06/13 08:51:16;;;;;;;;;9.75;8.75;;;;;25.09;46.61;100746.97;6368393;22;45568;-88
2023/06/13 08:53:49;;;;;;;;;20.50;19.25;;;;;25.18;45.75;100753.22;6334545;22;45502;-88
2023/06/13 08:56:14;;;;;;;;;16.00;16.00;;;;;25.29;45.34;100746.00;6361155;22;45375;-88
2023/06/13 08:58:43;;;;;;;;;15.33;14.67;;;;;25.41;45.30;100742.09;6336709;22;45651;-87
2023/06/13 09:01:10;;;;;;;;;14.50;14.50;;;;;25.49;45.25;100736.00;6360526;22;45293;-87
2023/06/13 09:03:37;;;;;;;;;13.67;13.33;;;;;25.60;44.98;100749.13;6334063;22;45337;-87
2023/06/13 09:06:05;;;;;;;;;17.25;17.00;;;;;25.70;45.35;100740.22;6334900;22;45270;-87
2023/06/13 09:08:32;;;;;;;;;14.50;14.50;;;;;25.84;44.32;100749.47;6362476;22;47007;-87
2023/06/13 09:10:59;;;;;;;;;16.75;16.25;;;;;25.95;44.49;100749.22;6337515;22;45376;-87
2023/06/13 09:13:27;;;;;;;;;14.67;14.33;;;;;26.02;44.13;100749.44;6338230;22;45176;-88
2023/06/13 09:15:52;;;;;;;;;15.00;14.00;;;;;26.14;43.00;100752.66;6363272;22;45327;-88
2023/06/13 09:18:21;;;;;;;;;15.75;14.75;;;;;26.27;43.54;100763.78;6361844;22;46503;-88
2023/06/13 09:20:47;;;;;;;;;14.33;14.33;;;;;26.37;43.02;100757.47;6338033;22;45349;-88
2023/06/13 09:23:17;;;;;;;;;16.67;15.33;;;;;26.49;42.51;100758.88;6338324;22;45435;-88
2023/06/13 09:25:45;;;;;;;;;17.67;16.33;;;;;26.59;42.88;100758.75;6338317;22;45311;-88
2023/06/13 09:28:27;;;;;;;;;14.33;14.00;;;;;26.72;41.58;100754.78;6336880;22;47751;-88
2023/06/13 09:30:52;;;;;;;;;16.67;15.00;;;;;26.80;42.03;100747.66;6338318;22;45247;-88
2023/06/13 09:33:17;;;;;;;;;18.00;16.00;;;;;26.89;41.27;100745.84;6337343;22;45313;-88
2023/06/13 09:35:43;;;;;;;;;17.00;17.00;;;;;27.00;41.45;100749.22;6335854;22;45661;-89
2023/06/13 09:38:10;;;;;;;;;17.25;16.00;;;;;27.11;41.22;100758.78;6362107;22;47230;-88
2023/06/13 09:40:35;;;;;;;;;17.25;17.00;;;;;27.23;41.19;100756.59;6362059;22;45288;-88
2023/06/13 09:43:02;;;;;;;;;15.33;14.67;;;;;27.33;40.95;100750.13;6362708;22;45328;-88
2023/06/13 09:45:29;;;;;;;;;15.00;14.33;;;;;27.45;41.69;100757.81;6336188;22;45439;-88
2023/06/13 09:47:54;;;;;;;;;14.67;14.33;;;;;27.57;40.51;100750.28;6361021;22;48185;-88
2023/06/13 09:50:22;;;;;;;;;12.33;12.33;;;;;27.70;40.08;100753.31;6337827;22;45264;-88
2023/06/13 09:52:47;;;;;;;;;17.75;14.00;;;;;27.84;40.61;100753.63;6336255;22;45217;-87
2023/06/13 09:55:12;;;;;;;;;12.75;12.75;;;;;27.96;40.54;100748.78;6362916;22;45266;-88
2023/06/13 09:57:38;;;;;;;;;16.25;16.00;;;;;28.08;40.64;100751.91;6361773;22;46843;-88
2023/06/13 10:00:08;;;;;;;;;13.00;13.00;;;;;28.20;39.36;100744.38;6362051;22;45242;-88
2023/06/13 10:02:33;;;;;;;;;13.50;13.50;;;;;28.32;39.14;100753.72;6362034;22;45378;-88
2023/06/13 10:04:59;;;;;;;;;16.25;16.25;;;;;28.43;39.49;100759.72;6339077;22;45458;-88
2023/06/13 10:07:25;;;;;;;;;18.00;18.00;;;;;28.55;39.22;100752.97;6363095;22;47081;-88
2023/06/13 10:09:51;;;;;;;;;17.25;16.50;;;;;28.68;38.62;100758.59;6338082;22;45244;-88
2023/06/13 10:12:21;;;;;;;;;18.25;15.50;;;;;28.81;38.62;100755.38;6336323;22;45639;-88
2023/06/13 10:14:56;;;;;;;;;16.50;15.25;;;;;28.95;38.54;100747.63;6336531;22;45476;-88
2023/06/13 10:17:23;;;;;;;;;14.50;14.50;;;;;29.09;38.07;100746.00;6337125;22;45336;-88
2023/06/13 10:19:53;;;;;;;;;14.50;13.00;;;;;29.24;37.77;100750.63;6335965;22;45344;-88
2023/06/13 10:22:19;;;;;;;;;17.50;16.25;;;;;29.37;37.39;100755.34;6362592;22;45264;-88
2023/06/13 10:24:48;;;;;;;;;15.25;15.25;;;;;29.51;36.86;100753.75;6338263;22;45447;-88
2023/06/13 10:27:17;;;;;;;;;16.25;16.25;;;;;29.63;36.63;100749.66;6334866;22;47902;-88
2023/06/13 10:30:18;;;;;;;;;18.00;17.00;;;;;29.77;36.30;100760.59;6337392;22;45158;-88
2023/06/13 10:33:04;;;;;;;;;17.67;15.67;;;;;29.90;36.05;100755.44;6335690;22;45453;-89
2023/06/13 10:36:11;;;;;;;;;15.50;14.50;;;;;30.07;36.69;100758.78;6338190;22;45268;-88
2023/06/13 10:38:57;;;;;;;;;16.00;15.50;;;;;30.23;35.11;100762.31;6335621;22;47335;-88
2023/06/13 10:41:29;;;;;;;;;15.75;14.00;;;;;30.36;35.57;100754.44;6334965;22;44745;-88
2023/06/13 10:44:03;;;;;;;;;16.25;16.25;;;;;30.50;35.03;100752.75;6340769;22;45273;-88
2023/06/13 10:46:29;;;;;;;;;15.00;15.00;;;;;30.65;35.36;100751.91;6364374;22;45474;-89
2023/06/13 10:48:54;;;;;;;;;16.25;15.75;;;;;30.80;34.40;100757.28;6333812;22;45621;-89
2023/06/13 10:51:30;;;;;;;;;17.00;17.00;;;;;30.91;34.45;100754.09;6358247;22;45324;-88
2023/06/13 10:54:01;;;;;;;;;13.75;13.25;;;;;31.03;33.75;100753.59;6361139;22;45669;-89
2023/06/13 10:56:32;;;;;;;;;11.00;11.00;;;;;31.11;33.96;100750.78;6337682;22;45395;-88
2023/06/13 10:59:02;;;;;;;;;12.50;12.50;;;;;31.24;31.91;100752.75;6360715;22;45432;-88
2023/06/13 11:01:30;;;;;;;;;12.00;12.00;;;;;31.35;32.94;100753.28;6361438;22;45382;-89
2023/06/13 11:04:09;;;;;;;;;13.25;13.25;;;;;31.46;32.67;100744.72;6338267;22;45347;-88
2023/06/13 11:06:36;;;;;;;;;11.50;11.00;;;;;31.59;32.38;100754.75;6362022;22;45312;-88
2023/06/13 11:09:19;;;;;;;;;12.75;11.75;;;;;31.70;31.29;100735.38;6362246;22;46757;-87
2023/06/13 11:11:48;;;;;;;;;11.75;11.75;;;;;31.82;31.34;100749.13;6335623;22;45428;-89
2023/06/13 11:14:16;;;;;;;;;11.25;11.25;;;;;31.93;30.75;100750.47;6335885;22;45456;-88
2023/06/13 11:16:45;;;;;;;;;12.00;12.00;;;;;32.03;31.12;100738.53;6362179;22;45458;-89
2023/06/13 11:19:15;;;;;;;;;14.00;12.75;;;;;32.16;30.90;100748.53;6335442;22;46135;-88
2023/06/13 11:21:46;;;;;;;;;9.50;9.50;;;;;32.20;30.25;100744.41;6363689;22;45288;-89
2023/06/13 11:24:15;;;;;;;;;12.33;12.33;;;;;32.29;30.84;100742.41;6339323;22;45243;-88
2023/06/13 11:26:45;;;;;;;;;11.75;11.75;;;;;32.42;29.68;100730.84;6337423;22;45277;-88
2023/06/13 11:29:12;;;;;;;;;12.33;11.67;;;;;32.51;29.89;100729.66;6361157;22;46772;-89
2023/06/13 11:31:39;;;;;;;;;11.00;10.33;;;;;32.63;29.70;100732.63;6335646;22;45235;-88
2023/06/13 11:34:08;;;;;;;;;11.67;11.67;;;;;32.74;28.93;100731.19;6362608;22;45380;-89
2023/06/13 11:36:38;;;;;;;;;12.33;12.33;;;;;32.82;28.65;100741.78;6337805;22;45538;-87
2023/06/13 11:39:05;;;;;;;;;10.67;10.67;;;;;32.90;28.75;100744.28;6361406;22;47288;-88
2023/06/13 11:51:54;;;;;;;;;14.00;12.00;;;;;33.24;27.61;100721.97;6337049;22;45791;-88
2023/06/13 11:54:28;;;;;;;;;13.75;11.75;;;;;33.28;27.52;100736.69;6337406;22;45235;-88
2023/06/13 11:56:53;;;;;;;;;11.75;11.75;;;;;33.32;27.53;100735.25;6362232;22;45427;-89
2023/06/13 11:59:20;;;;;;;;;11.00;11.00;;;;;33.38;27.46;100736.28;6362148;22;45735;-88
2023/06/13 12:01:52;;;;;;;;;12.25;11.75;;;;;33.42;27.60;100724.84;6337120;22;47882;-88
2023/06/13 12:04:18;;;;;;;;;10.75;10.50;;;;;33.53;27.77;100722.59;6362902;22;45442;-88
2023/06/13 12:06:43;;;;;;;;;12.75;11.75;;;;;33.62;27.50;100734.00;6334875;22;45459;-89
2023/06/13 12:09:09;;;;;;;;;10.75;10.75;;;;;33.67;26.48;100724.25;6362553;22;45396;-88
2023/06/13 12:11:34;;;;;;;;;11.25;11.25;;;;;33.74;26.89;100720.72;6361213;22;47051;-88
2023/06/13 12:14:02;;;;;;;;;12.00;11.33;;;;;33.78;27.10;100725.47;6362201;22;45359;-88
2023/06/13 12:16:31;;;;;;;;;11.50;11.50;;;;;33.83;26.95;100728.38;6361649;22;45288;-88
2023/06/13 12:18:57;;;;;;;;;11.33;11.00;;;;;33.86;26.46;100724.41;6362230;22;45434;-88
2023/06/13 12:21:28;;;;;;;;;12.33;11.67;;;;;33.83;26.51;100725.66;6360306;22;47685;-88
2023/06/13 12:23:55;;;;;;;;;13.33;12.33;;;;;33.80;26.00;100719.88;6337483;22;45214;-89
2023/06/13 12:26:21;;;;;;;;;11.67;11.67;;;;;33.76;25.84;100719.47;6361421;22;45390;-88
2023/06/13 12:28:47;;;;;;;;;10.33;10.33;;;;;33.73;26.07;100736.06;6361581;22;45362;-88
2023/06/13 12:31:14;;;;;;;;;10.67;10.67;;;;;33.77;25.93;100723.00;6361117;22;46753;-88
2023/06/13 12:33:39;;;;;;;;;12.00;12.00;;;;;33.82;26.21;100725.88;6335461;22;45339;-88
2023/06/13 12:36:05;;;;;;;;;13.00;13.00;;;;;33.92;25.88;100722.75;6334985;22;45151;-88
2023/06/13 12:43:54;;;;;;;;;11.50;11.50;;;;;33.97;25.44;100709.47;6275706;22;46056;-96